createdAt,value
2023-01-03T00:01:48.387Z,90.34
2023-01-03T00:04:16.111Z,89.71
2023-01-03T00:06:54.861Z,89.85
2023-01-03T00:09:26.265Z,89.64
2023-01-03T00:12:13.081Z,88.98
2023-01-03T00:14:45.087Z,90.19
2023-01-03T00:17:13.237Z,89.06
2023-01-03T00:19:43.359Z,89.80
2023-01-03T00:22:14.955Z,89.25
2023-01-03T00:24:48.498Z,89.26
2023-01-03T00:27:16.936Z,89.60
2023-01-03T00:29:44.542Z,88.31
2023-01-03T00:32:14.585Z,89.27
2023-01-03T00:34:45.027Z,90.17
2023-01-03T00:37:13.239Z,90.08
2023-01-03T00:39:43.774Z,90.52
2023-01-03T00:42:13.368Z,90.93
2023-01-03T00:44:42.588Z,89.69
2023-01-03T00:47:09.518Z,90.24
2023-01-03T00:49:36.713Z,90.27
2023-01-03T00:52:03.732Z,90.03
2023-01-03T00:54:30.828Z,89.04
2023-01-03T00:56:57.692Z,88.84
2023-01-03T00:59:27.561Z,89.47
2023-01-03T01:01:57.283Z,89.50
2023-01-03T01:04:30.982Z,89.20
2023-01-03T01:07:02.343Z,89.09
2023-01-03T01:09:35.874Z,89.66
2023-01-03T01:12:04.264Z,90.30
2023-01-03T01:14:33.414Z,88.88
2023-01-03T01:17:07.243Z,88.02
2023-01-03T01:19:38.616Z,87.59
2023-01-03T01:22:06.376Z,88.44
2023-01-03T01:24:34.216Z,88.21
2023-01-03T01:27:01.843Z,88.72
2023-01-03T01:29:31.390Z,88.74
2023-01-03T01:32:01.885Z,87.72
2023-01-03T01:34:30.312Z,87.43
2023-01-03T01:37:00.183Z,87.50
2023-01-03T01:39:28.999Z,88.58
2023-01-03T01:42:24.032Z,88.17
2023-01-03T01:45:03.284Z,88.86
2023-01-03T01:48:06.349Z,88.93
2023-01-03T01:50:48.075Z,88.34
2023-01-03T01:53:16.311Z,89.02
2023-01-03T01:55:54.873Z,87.94
2023-01-03T01:58:29.439Z,88.47
2023-01-03T02:00:56.344Z,89.21
2023-01-03T02:03:23.467Z,88.50
2023-01-03T02:05:53.885Z,88.27
2023-01-03T02:08:25.112Z,88.53
2023-01-03T02:11:10.399Z,88.30
2023-01-03T02:13:42.594Z,87.79
2023-01-03T02:16:18.355Z,87.43
2023-01-03T02:19:35.592Z,88.66
2023-01-03T02:22:36.244Z,88.12
2023-01-03T02:25:18.012Z,88.13
2023-01-03T02:28:24.054Z,88.67
2023-01-03T02:31:00.957Z,88.51
2023-01-03T02:33:48.989Z,87.25
2023-01-03T02:36:47.981Z,87.27
2023-01-03T02:39:40.761Z,87.37
2023-01-03T02:42:40.606Z,86.84
2023-01-03T02:45:33.244Z,85.92
2023-01-03T02:48:53.703Z,85.51
2023-01-03T02:51:42.235Z,84.55
2023-01-03T02:54:18.565Z,83.63
2023-01-03T02:56:59.852Z,83.54
2023-01-03T02:59:41.443Z,83.68
2023-01-03T03:02:11.860Z,82.87
2023-01-03T03:04:43.337Z,82.96
2023-01-03T03:07:32.718Z,83.63
2023-01-03T03:10:18.592Z,83.38
2023-01-03T03:13:12.179Z,82.66
2023-01-03T03:16:42.615Z,82.22
2023-01-03T03:19:55.554Z,82.38
2023-01-03T03:22:50.307Z,84.38
2023-01-03T03:25:37.652Z,85.22
2023-01-03T03:28:37.492Z,85.35
2023-01-03T03:31:25.574Z,85.31
2023-01-03T03:34:07.752Z,86.16
2023-01-03T03:36:49.395Z,85.81
2023-01-03T03:39:36.234Z,84.80
2023-01-03T03:42:33.922Z,84.85
2023-01-03T03:45:34.906Z,85.18
2023-01-03T03:48:09.758Z,85.19
2023-01-03T03:50:41.319Z,84.71
2023-01-03T03:53:12.535Z,84.67
2023-01-03T03:55:51.569Z,85.83
2023-01-03T03:58:28.179Z,86.43
2023-01-03T04:00:58.537Z,85.76
2023-01-03T04:03:26.410Z,85.39
2023-01-03T04:06:02.779Z,85.49
2023-01-03T04:08:29.669Z,85.47
2023-01-03T04:11:05.596Z,85.21
2023-01-03T04:13:37.987Z,85.70
2023-01-03T04:16:06.382Z,86.04
2023-01-03T04:18:36.057Z,85.90
2023-01-03T04:21:05.479Z,88.02
2023-01-03T04:23:34.392Z,87.99
2023-01-03T04:26:03.457Z,88.58
2023-01-03T04:28:30.431Z,87.83
2023-01-03T04:30:59.720Z,88.84
2023-01-03T04:33:26.648Z,88.42
2023-01-03T04:35:53.492Z,88.26
2023-01-03T04:38:20.390Z,88.36
2023-01-03T04:40:49.404Z,87.55
2023-01-03T04:43:37.823Z,88.87
2023-01-03T04:46:04.899Z,89.83
2023-01-03T04:48:34.396Z,88.68
2023-01-03T04:51:01.343Z,89.45
2023-01-03T04:53:30.773Z,89.44
2023-01-03T04:55:57.827Z,89.97
2023-01-03T04:58:25.074Z,89.10
2023-01-03T05:00:52.303Z,90.55
2023-01-03T05:03:24.107Z,90.20
2023-01-03T05:05:52.766Z,89.89
2023-01-03T05:08:19.602Z,90.32
2023-01-03T05:10:52.997Z,89.60
2023-01-03T05:13:22.401Z,90.43
2023-01-03T05:15:50.019Z,90.42
2023-01-03T05:18:16.955Z,90.29
2023-01-03T05:21:03.236Z,89.96
2023-01-03T05:23:48.576Z,88.80
2023-01-03T05:26:21.291Z,88.96
2023-01-03T05:28:53.805Z,90.28
2023-01-03T05:31:23.121Z,90.23
2023-01-03T05:33:52.309Z,91.00
2023-01-03T05:36:19.125Z,90.68
2023-01-03T05:38:46.070Z,90.16
2023-01-03T05:41:39.547Z,91.08
2023-01-03T05:44:09.018Z,91.02
2023-01-03T05:46:36.000Z,90.60
2023-01-03T05:49:05.309Z,90.27
2023-01-03T05:51:32.393Z,90.56
2023-01-03T05:53:59.348Z,91.47
2023-01-03T05:56:26.581Z,90.44
2023-01-03T05:58:53.534Z,90.42
2023-01-03T06:01:20.620Z,90.10
2023-01-03T06:03:48.613Z,90.24
2023-01-03T06:06:16.460Z,90.19
2023-01-03T06:08:45.855Z,90.21
2023-01-03T06:11:17.592Z,90.67
2023-01-03T06:13:45.428Z,90.71
2023-01-03T06:16:36.745Z,89.82
2023-01-03T06:19:05.820Z,90.12
2023-01-03T06:21:33.108Z,91.06
2023-01-03T06:24:00.274Z,91.23
2023-01-03T06:26:27.483Z,89.67
2023-01-03T06:28:54.473Z,90.45
2023-01-03T06:31:26.742Z,91.34
2023-01-03T06:33:54.149Z,90.00
2023-01-03T06:36:23.243Z,91.33
2023-01-03T06:38:50.326Z,92.17
2023-01-03T06:41:20.239Z,90.47
2023-01-03T06:43:47.085Z,90.23
2023-01-03T06:46:33.520Z,90.70
2023-01-03T06:49:19.881Z,91.39
2023-01-03T06:52:07.117Z,90.10
2023-01-03T06:54:37.657Z,91.07
2023-01-03T06:57:05.807Z,90.70
2023-01-03T06:59:32.958Z,90.53
2023-01-03T07:02:02.575Z,89.90
2023-01-03T07:04:29.588Z,90.34
2023-01-03T07:06:56.571Z,91.76
2023-01-03T07:09:26.050Z,91.21
2023-01-03T07:11:52.937Z,91.47
2023-01-03T07:14:22.405Z,91.37
2023-01-03T07:16:49.998Z,91.24
2023-01-03T07:19:19.368Z,90.26
2023-01-03T07:21:48.385Z,90.01
2023-01-03T07:24:18.684Z,90.54
2023-01-03T07:26:45.665Z,89.72
2023-01-03T07:29:12.549Z,89.20
2023-01-03T07:31:41.513Z,89.65
2023-01-03T07:34:09.553Z,90.22
2023-01-03T07:36:39.474Z,89.95
2023-01-03T07:39:06.386Z,90.47
2023-01-03T07:41:51.559Z,89.64
2023-01-03T07:44:18.408Z,90.08
2023-01-03T07:46:47.786Z,89.61
2023-01-03T07:49:14.716Z,89.55
2023-01-03T07:51:43.893Z,89.36
2023-01-03T07:54:11.050Z,88.92
2023-01-03T07:56:40.844Z,87.11
2023-01-03T07:59:12.336Z,86.89
2023-01-03T08:01:41.394Z,87.17
2023-01-03T08:04:08.378Z,86.61
2023-01-03T08:06:35.188Z,87.50
2023-01-03T08:09:20.397Z,88.03
2023-01-03T08:12:05.599Z,86.12
2023-01-03T08:14:32.463Z,86.93
2023-01-03T08:17:01.483Z,85.94
2023-01-03T08:19:30.849Z,82.79
2023-01-03T08:21:57.693Z,77.76
2023-01-03T08:24:24.581Z,75.33
2023-01-03T08:26:53.516Z,78.17
2023-01-03T08:29:20.356Z,80.64
2023-01-03T08:31:56.346Z,81.91
2023-01-03T08:34:30.050Z,82.68
2023-01-03T08:37:04.996Z,82.64
2023-01-03T08:39:42.233Z,82.52
2023-01-03T08:42:13.806Z,82.14
2023-01-03T08:44:41.529Z,80.27
2023-01-03T08:47:09.847Z,78.89
2023-01-03T08:49:37.388Z,77.25
2023-01-03T08:52:04.610Z,73.54
2023-01-03T08:54:32.566Z,68.55
2023-01-03T08:57:01.928Z,65.54
2023-01-03T08:59:33.962Z,63.78
2023-01-03T09:02:02.347Z,58.88
2023-01-03T09:04:29.373Z,54.98
2023-01-03T09:07:01.695Z,53.78
2023-01-03T09:09:28.677Z,50.60
2023-01-03T09:11:55.543Z,44.34
2023-01-03T09:14:22.413Z,41.55
2023-01-03T09:16:49.739Z,40.81
2023-01-03T09:19:17.052Z,40.80
2023-01-03T09:21:45.960Z,39.99
2023-01-03T09:24:15.095Z,39.71
2023-01-03T09:26:41.927Z,37.75
2023-01-03T09:29:11.300Z,39.42
2023-01-03T09:31:40.436Z,38.48
2023-01-03T09:34:07.510Z,38.83
2023-01-03T09:36:40.435Z,39.51
2023-01-03T09:39:09.753Z,41.39
2023-01-03T09:41:39.355Z,43.50
2023-01-03T09:44:09.065Z,47.92
2023-01-03T09:46:38.869Z,50.63
2023-01-03T09:49:07.375Z,54.76
2023-01-03T09:52:05.806Z,57.11
2023-01-03T09:54:57.419Z,60.66
2023-01-03T09:57:47.607Z,62.43
2023-01-03T10:00:43.625Z,64.21
2023-01-03T10:03:50.197Z,66.31
2023-01-03T10:06:36.149Z,66.95
2023-01-03T10:09:35.376Z,66.52
2023-01-03T10:12:13.946Z,68.85
2023-01-03T10:15:29.612Z,70.84
2023-01-03T10:18:27.290Z,71.12
2023-01-03T10:21:35.222Z,71.95
2023-01-03T10:24:21.235Z,72.41
2023-01-03T10:26:56.187Z,69.71
2023-01-03T10:29:25.348Z,58.38
2023-01-03T10:32:20.892Z,51.62
2023-01-03T10:35:04.625Z,52.27
2023-01-03T10:37:36.514Z,53.30
2023-01-03T10:40:05.197Z,55.86
2023-01-03T10:42:37.588Z,58.99
2023-01-03T10:45:17.631Z,59.38
2023-01-03T10:48:00.639Z,60.57
2023-01-03T10:50:29.140Z,61.39
2023-01-03T10:53:08.057Z,62.10
2023-01-03T10:55:44.631Z,56.25
2023-01-03T10:58:30.596Z,47.74
2023-01-03T11:01:30.677Z,43.33
2023-01-03T11:04:19.627Z,38.14
2023-01-03T11:07:15.499Z,33.54
2023-01-03T11:09:53.625Z,31.53
2023-01-03T11:12:39.650Z,34.38
2023-01-03T11:15:39.807Z,32.50
2023-01-03T11:18:18.067Z,30.02
2023-01-03T11:21:12.777Z,28.33
2023-01-03T11:23:39.581Z,29.57
2023-01-03T11:26:35.735Z,27.89
2023-01-03T11:29:48.213Z,27.26
2023-01-03T11:32:43.254Z,30.79
2023-01-03T11:35:37.842Z,31.40
2023-01-03T11:38:26.063Z,29.78
2023-01-03T11:41:19.246Z,29.12
2023-01-03T11:43:57.952Z,33.58
2023-01-03T11:47:34.036Z,36.78
2023-01-03T11:50:20.520Z,38.83
2023-01-03T11:52:57.380Z,42.04
2023-01-03T11:56:01.599Z,40.70
2023-01-03T11:58:43.460Z,35.15
2023-01-03T12:01:50.630Z,32.12
2023-01-03T12:04:29.307Z,30.00
2023-01-03T12:10:14.656Z,28.63
2023-01-03T12:13:01.908Z,30.01
2023-01-03T12:16:33.493Z,31.56
2023-01-03T12:19:11.997Z,31.00
2023-01-03T12:21:48.663Z,32.14
2023-01-03T12:24:34.629Z,33.00
2023-01-03T12:30:06.334Z,36.42
2023-01-03T12:33:05.550Z,37.97
2023-01-03T12:35:47.150Z,34.45
2023-01-03T12:38:16.867Z,32.92
2023-01-03T12:40:57.084Z,30.96
2023-01-03T12:43:38.069Z,29.65
2023-01-03T12:46:23.664Z,29.31
2023-01-03T12:49:24.421Z,28.45
2023-01-03T12:51:53.394Z,27.62
2023-01-03T12:54:43.025Z,27.51
2023-01-03T12:57:34.903Z,26.70
2023-01-03T13:00:32.561Z,27.79
2023-01-03T13:03:16.498Z,26.97
2023-01-03T13:05:50.452Z,26.96
2023-01-03T13:08:26.176Z,27.78
2023-01-03T13:10:58.311Z,28.11
2023-01-03T13:13:25.618Z,27.08
2023-01-03T13:15:54.091Z,28.30
2023-01-03T13:18:24.003Z,29.58
2023-01-03T13:20:53.325Z,31.08
2023-01-03T13:23:35.567Z,33.46
2023-01-03T13:26:10.326Z,33.48
2023-01-03T13:28:41.188Z,32.78
2023-01-03T13:31:14.518Z,33.23
2023-01-03T13:34:15.995Z,32.53
2023-01-03T13:37:21.902Z,32.19
2023-01-03T13:39:51.490Z,33.98
2023-01-03T13:42:30.568Z,33.93
2023-01-03T13:45:15.791Z,32.56
2023-01-03T13:48:26.581Z,34.30
2023-01-03T13:51:26.481Z,35.67
2023-01-03T13:54:11.307Z,35.37
2023-01-03T13:56:44.455Z,34.59
2023-01-03T13:59:35.549Z,34.83
2023-01-03T14:02:57.388Z,36.49
2023-01-03T14:06:30.601Z,38.33
2023-01-03T14:09:16.038Z,38.27
2023-01-03T14:12:37.471Z,39.97
2023-01-03T14:15:25.841Z,42.39
2023-01-03T14:18:01.918Z,45.84
2023-01-03T14:20:36.152Z,48.15
2023-01-03T14:23:48.271Z,49.63
2023-01-03T14:26:04.639Z,52.54
2023-01-03T14:28:33.766Z,54.70
2023-01-03T14:31:03.285Z,58.02
2023-01-03T14:33:36.637Z,59.14
2023-01-03T14:36:08.809Z,60.26
2023-01-03T14:38:36.423Z,62.06
2023-01-03T14:41:03.459Z,63.77
2023-01-03T14:43:33.585Z,63.55
2023-01-03T14:46:06.367Z,64.45
2023-01-03T14:48:33.784Z,64.56
2023-01-03T14:51:05.416Z,65.25
2023-01-03T14:53:33.999Z,66.61
2023-01-03T14:56:01.288Z,66.44
2023-01-03T14:58:45.252Z,67.43
2023-01-03T15:01:15.526Z,68.36
2023-01-03T15:03:49.827Z,68.62
2023-01-03T15:06:20.827Z,69.20
2023-01-03T15:08:53.372Z,69.69
2023-01-03T15:11:33.237Z,70.27
2023-01-03T15:14:07.186Z,71.75
2023-01-03T15:16:40.885Z,73.11
2023-01-03T15:19:14.830Z,73.48
2023-01-03T15:21:44.548Z,73.17
2023-01-03T15:24:18.361Z,73.44
2023-01-03T15:26:51.993Z,73.85
2023-01-03T15:29:28.558Z,74.38
2023-01-03T15:31:57.691Z,74.95
2023-01-03T15:34:30.606Z,75.09
2023-01-03T15:37:23.384Z,74.91
2023-01-03T15:39:57.271Z,74.88
2023-01-03T15:42:57.934Z,76.13
2023-01-03T15:45:33.152Z,76.44
2023-01-03T15:48:11.541Z,77.08
2023-01-03T15:50:50.671Z,77.76
2023-01-03T15:53:21.492Z,78.15
2023-01-03T15:55:57.306Z,77.96
2023-01-03T15:58:28.471Z,79.48
2023-01-03T16:00:55.890Z,80.88
2023-01-03T16:03:26.296Z,80.39
2023-01-03T16:05:53.360Z,79.07
2023-01-03T16:08:30.743Z,79.17
2023-01-03T16:11:04.204Z,79.91
2023-01-03T16:13:41.620Z,80.87
2023-01-03T16:16:11.797Z,81.42
2023-01-03T16:18:49.038Z,80.74
2023-01-03T16:21:20.909Z,81.03
2023-01-03T16:23:47.858Z,81.81
2023-01-03T16:26:18.576Z,82.64
2023-01-03T16:28:50.303Z,81.93
2023-01-03T16:31:25.293Z,84.14
2023-01-03T16:33:53.561Z,84.00
2023-01-03T16:36:38.060Z,84.62
2023-01-03T16:39:10.487Z,85.75
2023-01-03T16:41:37.322Z,84.46
2023-01-03T16:44:05.251Z,83.87
2023-01-03T16:46:38.688Z,84.25
2023-01-03T16:49:09.392Z,85.68
2023-01-03T16:51:39.498Z,85.68
2023-01-03T16:54:12.702Z,85.35
2023-01-03T16:56:39.590Z,86.20
2023-01-03T16:59:20.305Z,85.02
2023-01-03T17:01:52.789Z,85.82
2023-01-03T17:04:19.953Z,85.00
2023-01-03T17:06:49.345Z,85.12
2023-01-03T17:09:29.455Z,87.49
2023-01-03T17:11:56.364Z,88.49
2023-01-03T17:14:23.642Z,88.41
2023-01-03T17:16:53.504Z,88.43
2023-01-03T17:22:26.274Z,88.95
2023-01-03T17:24:53.204Z,90.66
2023-01-03T17:27:31.747Z,92.07
2023-01-03T17:30:04.713Z,91.21
2023-01-03T17:32:31.941Z,92.59
2023-01-03T17:34:58.830Z,93.55
2023-01-03T17:37:26.422Z,92.94
2023-01-03T17:39:57.575Z,92.30
2023-01-03T17:42:29.270Z,92.61
2023-01-03T17:45:14.587Z,93.20
2023-01-03T17:48:02.024Z,94.48
2023-01-03T17:50:34.568Z,93.93
2023-01-03T17:53:04.665Z,94.59
2023-01-03T17:55:34.070Z,94.22
2023-01-03T17:58:04.313Z,94.04
2023-01-03T18:00:32.069Z,93.49
2023-01-03T18:03:02.355Z,93.26
2023-01-03T18:05:30.318Z,92.74
2023-01-03T18:08:00.882Z,94.03
2023-01-03T18:10:35.594Z,93.47
2023-01-03T18:13:36.324Z,92.27
2023-01-03T18:16:04.502Z,93.54
2023-01-03T18:18:32.501Z,92.11
2023-01-03T18:21:02.440Z,91.83
2023-01-03T18:23:37.712Z,92.02
2023-01-03T18:26:11.764Z,91.13
2023-01-03T18:28:38.806Z,93.21
2023-01-03T18:31:07.137Z,92.82
2023-01-03T18:33:34.149Z,93.51
2023-01-03T18:36:01.441Z,92.92
2023-01-03T18:38:38.017Z,91.85
2023-01-03T18:41:06.361Z,92.58
2023-01-03T18:43:34.202Z,91.12
2023-01-03T18:46:01.357Z,91.42
2023-01-03T18:48:31.553Z,90.36
2023-01-03T18:50:59.942Z,91.00
2023-01-03T18:53:31.630Z,89.37
2023-01-03T18:56:00.082Z,89.69
2023-01-03T18:58:40.147Z,89.84
2023-01-03T19:01:07.380Z,90.25
2023-01-03T19:03:36.159Z,89.39
2023-01-03T19:06:15.120Z,90.66
2023-01-03T19:08:45.431Z,91.15
2023-01-03T19:11:29.742Z,90.92
2023-01-03T19:14:00.178Z,92.42
2023-01-03T19:16:31.616Z,92.87
2023-01-03T19:19:00.031Z,93.66
2023-01-03T19:21:35.905Z,92.57
2023-01-03T19:24:19.963Z,92.50
2023-01-03T19:27:07.184Z,90.74
2023-01-03T19:29:37.636Z,91.55
2023-01-03T19:32:12.195Z,92.36
2023-01-03T19:34:39.067Z,92.40
2023-01-03T19:37:09.064Z,91.73
2023-01-03T19:39:37.792Z,90.71
2023-01-03T19:42:29.919Z,93.33
2023-01-03T19:44:59.690Z,92.20
2023-01-03T19:47:26.664Z,93.24
2023-01-03T19:49:55.238Z,92.27
2023-01-03T19:52:24.896Z,92.79
2023-01-03T19:54:51.920Z,93.39
2023-01-03T19:57:32.209Z,93.42
2023-01-03T20:00:01.567Z,93.13
2023-01-03T20:02:40.198Z,92.13
2023-01-03T20:05:25.562Z,91.78
2023-01-03T20:07:53.018Z,91.66
2023-01-03T20:10:25.525Z,91.91
2023-01-03T20:12:57.519Z,90.98
2023-01-03T20:15:30.699Z,91.63
2023-01-03T20:17:58.320Z,92.20
2023-01-03T20:20:30.498Z,93.37
2023-01-03T20:23:07.095Z,92.96
2023-01-03T20:25:37.105Z,92.56
2023-01-03T20:28:05.197Z,92.52
2023-01-03T20:30:34.277Z,93.53
2023-01-03T20:33:01.287Z,93.73
2023-01-03T20:38:24.902Z,93.96
2023-01-03T20:40:53.771Z,93.52
2023-01-03T20:43:21.015Z,94.96
2023-01-03T20:45:57.057Z,96.17
2023-01-03T20:48:26.277Z,94.52
2023-01-03T20:50:53.623Z,94.84
2023-01-03T20:53:26.378Z,95.57
2023-01-03T20:55:54.097Z,95.17
2023-01-03T20:58:27.510Z,95.49
2023-01-03T21:01:04.249Z,94.74
2023-01-03T21:03:38.193Z,94.66
2023-01-03T21:06:23.973Z,94.90
2023-01-03T21:08:57.532Z,95.33
2023-01-03T21:11:29.220Z,95.35
2023-01-03T21:13:59.546Z,95.29
2023-01-03T21:16:45.149Z,94.81
2023-01-03T21:19:21.990Z,94.37
2023-01-03T21:21:54.289Z,94.80
2023-01-03T21:24:23.964Z,96.24
2023-01-03T21:26:50.989Z,96.74
2023-01-03T21:29:22.071Z,95.88
2023-01-03T21:31:51.604Z,95.30
2023-01-03T21:34:23.379Z,96.94
2023-01-03T21:36:54.775Z,97.02
2023-01-03T21:39:21.628Z,98.19
2023-01-03T21:42:08.004Z,98.04
2023-01-03T21:44:37.078Z,97.77
2023-01-03T21:47:03.971Z,98.67
2023-01-03T21:49:30.926Z,98.65
2023-01-03T21:51:57.849Z,97.17
2023-01-03T21:54:24.871Z,97.36
2023-01-03T21:56:54.237Z,98.09
2023-01-03T21:59:23.610Z,97.38
2023-01-03T22:02:09.099Z,97.33
2023-01-03T22:04:36.159Z,96.99
2023-01-03T22:07:03.097Z,96.77
2023-01-03T22:09:50.361Z,97.26
2023-01-03T22:12:18.909Z,97.05
2023-01-03T22:14:46.638Z,96.72
2023-01-03T22:17:14.034Z,98.87
2023-01-03T22:19:41.026Z,99.26
2023-01-03T22:22:10.206Z,98.35
2023-01-03T22:24:37.060Z,97.60
2023-01-03T22:27:03.974Z,97.72
2023-01-03T22:29:30.851Z,96.63
2023-01-03T22:31:57.799Z,97.86
2023-01-03T22:34:24.726Z,97.37
2023-01-03T22:36:51.614Z,97.62
2023-01-03T22:39:18.490Z,97.22
2023-01-03T22:41:52.345Z,96.79
2023-01-03T22:44:21.720Z,96.77
2023-01-03T22:46:51.090Z,97.51
2023-01-03T22:49:22.556Z,96.81
2023-01-03T22:51:49.405Z,96.88
2023-01-03T22:54:20.767Z,97.16
2023-01-03T22:56:49.687Z,96.68
2023-01-03T22:59:19.196Z,97.12
2023-01-03T23:01:46.588Z,97.46
2023-01-03T23:04:14.002Z,96.57
2023-01-03T23:06:41.074Z,96.60
2023-01-03T23:09:07.919Z,97.07
2023-01-03T23:11:53.162Z,96.63
2023-01-03T23:14:22.085Z,96.33
2023-01-03T23:16:57.710Z,96.66
2023-01-03T23:19:26.436Z,95.37
2023-01-03T23:21:54.409Z,95.15
2023-01-03T23:24:24.468Z,95.87
2023-01-03T23:26:52.430Z,94.54
2023-01-03T23:29:22.173Z,95.60
2023-01-03T23:31:52.787Z,94.60
2023-01-03T23:34:21.965Z,94.19
2023-01-03T23:36:49.128Z,93.95
2023-01-03T23:39:18.195Z,93.03
2023-01-03T23:41:45.996Z,93.80
2023-01-03T23:44:12.928Z,93.25
2023-01-03T23:46:42.549Z,93.54
2023-01-03T23:49:13.286Z,92.12
2023-01-03T23:51:40.441Z,91.75
2023-01-03T23:54:07.289Z,90.69
2023-01-03T23:56:34.291Z,91.27
2023-01-03T23:59:04.105Z,91.63
